Main page
METAR-TAF:

METAR-TAF

Airports :

Bratislava, Slovakia

Bratislava Airport

latitude: 48-12N, longitude: 017-12E, elevation: 133 m

Current weather observation

The report was made 24 minutes ago, at 14:00 UTC
Wind 4 kt from variable directions
Temperature 25°C
Humidity 32%
Pressure 1022 hPa
Visibility 10 km or more
no clouds below 1500 m and no cumulonimbus

METAR: LZIB 281400Z VRB04KT CAVOK 25/07 Q1022 NOSIG

Time: 16:24 (14:24 UTC)

Forecast

The report was made 3 hours and 24 minutes ago, at 11:00 UTC
Forecast valid from 28 at 12 UTC to 29 at 12 UTC
Wind 6 kt from the South/Southeast
Visibility 10 km or more
no clouds below 1500 m and no cumulonimbus
Temporary
from 28 at 12 UTC to 28 at 16 UTC
Wind 10 kt from the Southeast
Becoming
from 29 at 10 UTC to 29 at 12 UTC
Wind 11 kt from the South

TAF: LZIB 281100Z 2812/2912 15006KT CAVOK TEMPO 2812/2816 13010KT BECMG 2910/2912 17011KT

Weather observations and forecasts of more than 4000 airports (METAR and TAF reports).

The available stations are represented by yellow and red dots on the map.

Hover mouse over dot to see the name of the station.

Then click to see weather observations and forecasts.

To change the map : click on the green buttons with a black cross to zoom in, on the green button with a dash to zoom out, or on the green arrows for adjacent maps.


METAR-TAF: